sensor_id;sensor_type;location;lat;lon;timestamp;pressure;altitude;pressure_sealevel;temperature;humidity
55994;BME280;67425;52.126;20.638;2023-04-24T00:01:25;57260.91;;;-144.78;44.42
55994;BME280;67425;52.126;20.638;2023-04-24T00:03:50;57229.75;;;-144.78;43.16
55994;BME280;67425;52.126;20.638;2023-04-24T00:06:16;57221.44;;;-144.78;42.40
55994;BME280;67425;52.126;20.638;2023-04-24T00:08:42;57236.00;;;-144.78;43.18
55994;BME280;67425;52.126;20.638;2023-04-24T00:11:08;57242.22;;;-144.78;44.02
55994;BME280;67425;52.126;20.638;2023-04-24T00:13:34;57250.53;;;-144.78;45.26
55994;BME280;67425;52.126;20.638;2023-04-24T00:15:59;57240.13;;;-144.78;44.55
55994;BME280;67425;52.126;20.638;2023-04-24T00:18:25;57223.53;;;-144.78;43.10
55994;BME280;67425;52.126;20.638;2023-04-24T00:20:50;57213.16;;;-144.78;42.68
55994;BME280;67425;52.126;20.638;2023-04-24T00:23:15;57238.06;;;-144.78;43.15
55994;BME280;67425;52.126;20.638;2023-04-24T00:25:41;57229.75;;;-144.78;43.17
55994;BME280;67425;52.126;20.638;2023-04-24T00:28:06;57238.06;;;-144.78;44.34
55994;BME280;67425;52.126;20.638;2023-04-24T00:30:31;57215.22;;;-144.78;43.89
55994;BME280;67425;52.126;20.638;2023-04-24T00:32:57;57248.44;;;-144.78;44.31
55994;BME280;67425;52.126;20.638;2023-04-24T00:35:22;57256.75;;;-144.78;44.72
55994;BME280;67425;52.126;20.638;2023-04-24T00:37:48;57256.75;;;-144.78;45.21
55994;BME280;67425;52.126;20.638;2023-04-24T00:40:13;57248.44;;;-144.78;45.07
55994;BME280;67425;52.126;20.638;2023-04-24T00:42:40;57250.53;;;-144.78;44.90
55994;BME280;67425;52.126;20.638;2023-04-24T00:45:06;57233.91;;;-144.78;44.51
55994;BME280;67425;52.126;20.638;2023-04-24T00:47:33;57265.06;;;-144.78;44.87
55994;BME280;67425;52.126;20.638;2023-04-24T00:50:01;57265.06;;;-144.78;45.04
55994;BME280;67425;52.126;20.638;2023-04-24T00:52:27;57248.44;;;-144.78;44.62
55994;BME280;67425;52.126;20.638;2023-04-24T00:54:53;57236.00;;;-144.78;44.54
55994;BME280;67425;52.126;20.638;2023-04-24T00:57:19;57260.91;;;-144.78;46.05
55994;BME280;67425;52.126;20.638;2023-04-24T00:59:45;57287.91;;;-144.78;47.28
55994;BME280;67425;52.126;20.638;2023-04-24T01:02:11;57289.97;;;-144.78;48.32
55994;BME280;67425;52.126;20.638;2023-04-24T01:04:37;57302.44;;;-144.78;48.67
55994;BME280;67425;52.126;20.638;2023-04-24T01:07:03;57292.06;;;-144.78;48.62
55994;BME280;67425;52.126;20.638;2023-04-24T01:09:35;57281.69;;;-144.78;47.70
55994;BME280;67425;52.126;20.638;2023-04-24T01:12:01;57279.59;;;-144.78;47.12
55994;BME280;67425;52.126;20.638;2023-04-24T01:14:27;57279.59;;;-144.78;46.74
55994;BME280;67425;52.126;20.638;2023-04-24T01:16:52;57281.69;;;-144.78;47.71
55994;BME280;67425;52.126;20.638;2023-04-24T01:19:18;57283.75;;;-144.78;47.13
55994;BME280;67425;52.126;20.638;2023-04-24T01:21:45;57277.53;;;-144.78;47.88
55994;BME280;67425;52.126;20.638;2023-04-24T01:24:12;57294.13;;;-144.78;47.20
55994;BME280;67425;52.126;20.638;2023-04-24T01:26:38;57283.75;;;-144.78;46.97
55994;BME280;67425;52.126;20.638;2023-04-24T01:29:03;57277.53;;;-144.78;46.10
55994;BME280;67425;52.126;20.638;2023-04-24T01:31:29;57265.06;;;-144.78;46.29
55994;BME280;67425;52.126;20.638;2023-04-24T01:33:56;57285.81;;;-144.78;46.36
55994;BME280;67425;52.126;20.638;2023-04-24T01:36:21;57281.69;;;-144.78;47.29
55994;BME280;67425;52.126;20.638;2023-04-24T01:38:48;57289.97;;;-144.78;47.45
55994;BME280;67425;52.126;20.638;2023-04-24T01:41:13;57271.28;;;-144.78;47.45
55994;BME280;67425;52.126;20.638;2023-04-24T01:43:39;57298.28;;;-144.78;48.31
55994;BME280;67425;52.126;20.638;2023-04-24T01:46:04;57304.50;;;-144.78;48.80
55994;BME280;67425;52.126;20.638;2023-04-24T01:48:30;57323.22;;;-144.78;49.32
55994;BME280;67425;52.126;20.638;2023-04-24T01:50:56;57302.44;;;-144.78;48.65
55994;BME280;67425;52.126;20.638;2023-04-24T01:53:22;57306.59;;;-144.78;48.74
55994;BME280;67425;52.126;20.638;2023-04-24T01:55:47;57306.59;;;-144.78;48.24
55994;BME280;67425;52.126;20.638;2023-04-24T01:58:13;57312.81;;;-144.78;48.17
55994;BME280;67425;52.126;20.638;2023-04-24T02:00:39;57316.97;;;-144.78;49.70
55994;BME280;67425;52.126;20.638;2023-04-24T02:03:04;57310.75;;;-144.78;48.54
55994;BME280;67425;52.126;20.638;2023-04-24T02:05:29;57323.22;;;-144.78;48.58
55994;BME280;67425;52.126;20.638;2023-04-24T02:07:55;57298.28;;;-144.78;47.33
55994;BME280;67425;52.126;20.638;2023-04-24T02:10:20;57287.91;;;-144.78;47.53
55994;BME280;67425;52.126;20.638;2023-04-24T02:12:45;57308.66;;;-144.78;48.15
55994;BME280;67425;52.126;20.638;2023-04-24T02:15:11;57275.44;;;-144.78;47.98
55994;BME280;67425;52.126;20.638;2023-04-24T02:17:37;57298.28;;;-144.78;48.42
55994;BME280;67425;52.126;20.638;2023-04-24T02:20:03;57302.44;;;-144.78;49.28
55994;BME280;67425;52.126;20.638;2023-04-24T02:22:28;57304.50;;;-144.78;48.58
55994;BME280;67425;52.126;20.638;2023-04-24T02:24:54;57321.13;;;-144.78;48.75
55994;BME280;67425;52.126;20.638;2023-04-24T02:27:19;57314.91;;;-144.78;49.19
55994;BME280;67425;52.126;20.638;2023-04-24T02:29:44;57314.91;;;-144.78;49.36
55994;BME280;67425;52.126;20.638;2023-04-24T02:32:10;57321.13;;;-144.78;48.56
55994;BME280;67425;52.126;20.638;2023-04-24T02:34:37;57287.91;;;-144.78;47.92
55994;BME280;67425;52.126;20.638;2023-04-24T02:37:02;57298.28;;;-144.78;47.40
55994;BME280;67425;52.126;20.638;2023-04-24T02:39:28;57306.59;;;-144.78;47.63
55994;BME280;67425;52.126;20.638;2023-04-24T02:41:53;57298.28;;;-144.78;47.83
55994;BME280;67425;52.126;20.638;2023-04-24T02:44:18;57306.59;;;-144.78;48.73
55994;BME280;67425;52.126;20.638;2023-04-24T02:46:44;57308.66;;;-144.78;48.38
55994;BME280;67425;52.126;20.638;2023-04-24T02:49:09;57316.97;;;-144.78;49.16
55994;BME280;67425;52.126;20.638;2023-04-24T02:51:37;57316.97;;;-144.78;49.60
55994;BME280;67425;52.126;20.638;2023-04-24T02:54:05;57333.59;;;-144.78;49.16
55994;BME280;67425;52.126;20.638;2023-04-24T02:56:31;57312.81;;;-144.78;49.42
55994;BME280;67425;52.126;20.638;2023-04-24T02:58:56;57323.22;;;-144.78;50.16
55994;BME280;67425;52.126;20.638;2023-04-24T03:01:21;57314.91;;;-144.78;50.05
55994;BME280;67425;52.126;20.638;2023-04-24T03:03:46;57325.28;;;-144.78;49.87
55994;BME280;67425;52.126;20.638;2023-04-24T03:06:12;57321.13;;;-144.78;49.69
55994;BME280;67425;52.126;20.638;2023-04-24T03:08:37;57310.75;;;-144.78;50.86
55994;BME280;67425;52.126;20.638;2023-04-24T03:11:02;57308.66;;;-144.78;49.56
55994;BME280;67425;52.126;20.638;2023-04-24T03:13:28;57323.22;;;-144.78;50.86
55994;BME280;67425;52.126;20.638;2023-04-24T03:15:53;57323.22;;;-144.78;49.73
55994;BME280;67425;52.126;20.638;2023-04-24T03:18:19;57285.81;;;-144.78;49.32
55994;BME280;67425;52.126;20.638;2023-04-24T03:20:47;57314.91;;;-144.78;49.53
55994;BME280;67425;52.126;20.638;2023-04-24T03:23:12;57321.13;;;-144.78;49.86
55994;BME280;67425;52.126;20.638;2023-04-24T03:25:38;57325.28;;;-144.78;50.46
55994;BME280;67425;52.126;20.638;2023-04-24T03:28:03;57308.66;;;-144.78;49.94
55994;BME280;67425;52.126;20.638;2023-04-24T03:30:29;57327.34;;;-144.78;49.96
55994;BME280;67425;52.126;20.638;2023-04-24T03:32:55;57308.66;;;-144.78;50.37
55994;BME280;67425;52.126;20.638;2023-04-24T03:35:20;57300.38;;;-144.78;49.63
55994;BME280;67425;52.126;20.638;2023-04-24T03:37:47;57308.66;;;-144.78;49.57
55994;BME280;67425;52.126;20.638;2023-04-24T03:40:12;57314.91;;;-144.78;50.17
55994;BME280;67425;52.126;20.638;2023-04-24T03:42:38;57316.97;;;-144.78;50.66
55994;BME280;67425;52.126;20.638;2023-04-24T03:45:03;57319.06;;;-144.78;50.41
55994;BME280;67425;52.126;20.638;2023-04-24T03:47:29;57304.50;;;-144.78;50.88
55994;BME280;67425;52.126;20.638;2023-04-24T03:49:54;57298.28;;;-144.78;50.81
55994;BME280;67425;52.126;20.638;2023-04-24T03:52:21;57319.06;;;-144.78;50.89
55994;BME280;67425;52.126;20.638;2023-04-24T03:54:46;57304.50;;;-144.78;51.18
55994;BME280;67425;52.126;20.638;2023-04-24T03:57:11;57300.38;;;-144.78;50.60
55994;BME280;67425;52.126;20.638;2023-04-24T03:59:37;57310.75;;;-144.78;50.18
55994;BME280;67425;52.126;20.638;2023-04-24T04:02:02;57310.75;;;-144.78;50.72
55994;BME280;67425;52.126;20.638;2023-04-24T04:04:27;57298.28;;;-144.78;51.08
55994;BME280;67425;52.126;20.638;2023-04-24T04:06:53;57302.44;;;-144.78;51.03
55994;BME280;67425;52.126;20.638;2023-04-24T04:09:18;57289.97;;;-144.78;50.81
55994;BME280;67425;52.126;20.638;2023-04-24T04:11:44;57273.38;;;-144.78;50.27
55994;BME280;67425;52.126;20.638;2023-04-24T04:14:09;57275.44;;;-144.78;49.83
55994;BME280;67425;52.126;20.638;2023-04-24T04:16:34;57271.28;;;-144.78;50.01
55994;BME280;67425;52.126;20.638;2023-04-24T04:19:02;57275.44;;;-144.78;50.09
55994;BME280;67425;52.126;20.638;2023-04-24T04:21:28;57289.97;;;-144.78;50.94
55994;BME280;67425;52.126;20.638;2023-04-24T04:23:53;57285.81;;;-144.78;51.05
55994;BME280;67425;52.126;20.638;2023-04-24T04:26:19;57273.38;;;-144.78;50.87
55994;BME280;67425;52.126;20.638;2023-04-24T04:28:46;57292.06;;;-144.78;50.09
55994;BME280;67425;52.126;20.638;2023-04-24T04:31:12;57273.38;;;-144.78;50.80
55994;BME280;67425;52.126;20.638;2023-04-24T04:33:38;57281.69;;;-144.78;50.39
55994;BME280;67425;52.126;20.638;2023-04-24T04:36:04;57244.28;;;-144.78;50.01
55994;BME280;67425;52.126;20.638;2023-04-24T04:38:30;57273.38;;;-144.78;49.69
55994;BME280;67425;52.126;20.638;2023-04-24T04:40:55;57248.44;;;-144.78;49.72
55994;BME280;67425;52.126;20.638;2023-04-24T04:43:24;57271.28;;;-144.78;49.41
55994;BME280;67425;52.126;20.638;2023-04-24T04:45:50;57258.84;;;-144.78;48.65
55994;BME280;67425;52.126;20.638;2023-04-24T04:48:16;57258.84;;;-144.78;48.84
55994;BME280;67425;52.126;20.638;2023-04-24T04:50:43;57260.91;;;-144.78;47.91
55994;BME280;67425;52.126;20.638;2023-04-24T04:53:08;57238.06;;;-144.78;47.61
55994;BME280;67425;52.126;20.638;2023-04-24T04:55:33;57246.38;;;-144.78;48.24
55994;BME280;67425;52.126;20.638;2023-04-24T04:57:59;57229.75;;;-144.78;46.70
55994;BME280;67425;52.126;20.638;2023-04-24T05:00:25;57242.22;;;-144.78;47.04
55994;BME280;67425;52.126;20.638;2023-04-24T05:02:51;57240.13;;;-144.78;46.80
55994;BME280;67425;52.126;20.638;2023-04-24T05:05:16;57256.75;;;-144.78;46.63
55994;BME280;67425;52.126;20.638;2023-04-24T05:07:43;57233.91;;;-144.78;46.14
55994;BME280;67425;52.126;20.638;2023-04-24T05:10:09;57227.69;;;-144.78;45.35
55994;BME280;67425;52.126;20.638;2023-04-24T05:12:34;57211.06;;;-144.78;44.50
55994;BME280;67425;52.126;20.638;2023-04-24T05:14:59;57219.38;;;-144.78;45.52
55994;BME280;67425;52.126;20.638;2023-04-24T05:17:25;57265.06;;;-144.78;47.29
55994;BME280;67425;52.126;20.638;2023-04-24T05:19:51;57240.13;;;-144.78;47.27
55994;BME280;67425;52.126;20.638;2023-04-24T05:22:16;57258.84;;;-144.78;46.97
55994;BME280;67425;52.126;20.638;2023-04-24T05:24:43;57215.22;;;-144.78;45.79
55994;BME280;67425;52.126;20.638;2023-04-24T05:27:09;57221.44;;;-144.78;45.32
55994;BME280;67425;52.126;20.638;2023-04-24T05:29:34;57204.84;;;-144.78;44.51
55994;BME280;67425;52.126;20.638;2023-04-24T05:32:00;57179.91;;;-144.78;44.06
55994;BME280;67425;52.126;20.638;2023-04-24T05:34:26;57173.69;;;-144.78;44.42
55994;BME280;67425;52.126;20.638;2023-04-24T05:36:51;57152.94;;;-144.78;42.75
55994;BME280;67425;52.126;20.638;2023-04-24T05:39:17;57179.91;;;-144.78;43.59
55994;BME280;67425;52.126;20.638;2023-04-24T05:41:43;57159.16;;;-144.78;43.33
55994;BME280;67425;52.126;20.638;2023-04-24T05:44:08;57152.94;;;-144.78;42.71
55994;BME280;67425;52.126;20.638;2023-04-24T05:46:35;57142.53;;;-144.78;42.02
55994;BME280;67425;52.126;20.638;2023-04-24T05:49:01;57138.38;;;-144.78;42.31
55994;BME280;67425;52.126;20.638;2023-04-24T05:51:27;57119.69;;;-144.78;40.92
55994;BME280;67425;52.126;20.638;2023-04-24T05:53:53;57130.09;;;-144.78;40.37
55994;BME280;67425;52.126;20.638;2023-04-24T05:56:18;57119.69;;;-144.78;40.56
55994;BME280;67425;52.126;20.638;2023-04-24T05:58:45;57101.00;;;-144.78;39.05
55994;BME280;67425;52.126;20.638;2023-04-24T06:01:11;57092.69;;;-144.78;39.66
55994;BME280;67425;52.126;20.638;2023-04-24T06:03:38;57092.69;;;-144.78;38.35
55994;BME280;67425;52.126;20.638;2023-04-24T06:06:05;57078.16;;;-144.78;38.47
55994;BME280;67425;52.126;20.638;2023-04-24T06:08:31;57071.94;;;-144.78;37.80
55994;BME280;67425;52.126;20.638;2023-04-24T06:10:56;57069.88;;;-144.78;36.86
55994;BME280;67425;52.126;20.638;2023-04-24T06:13:21;57044.94;;;-144.78;36.46
55994;BME280;67425;52.126;20.638;2023-04-24T06:15:46;57044.94;;;-144.78;36.54
55994;BME280;67425;52.126;20.638;2023-04-24T06:18:12;57069.88;;;-144.78;36.29
55994;BME280;67425;52.126;20.638;2023-04-24T06:20:38;57055.31;;;-144.78;35.59
55994;BME280;67425;52.126;20.638;2023-04-24T06:23:03;57053.25;;;-144.78;35.49
55994;BME280;67425;52.126;20.638;2023-04-24T06:25:28;57061.56;;;-144.78;35.90
55994;BME280;67425;52.126;20.638;2023-04-24T06:27:55;57057.41;;;-144.78;36.06
55994;BME280;67425;52.126;20.638;2023-04-24T06:30:20;57051.16;;;-144.78;35.21
55994;BME280;67425;52.126;20.638;2023-04-24T06:32:46;57038.72;;;-144.78;35.34
55994;BME280;67425;52.126;20.638;2023-04-24T06:35:11;57034.56;;;-144.78;35.43
55994;BME280;67425;52.126;20.638;2023-04-24T06:37:39;57007.56;;;-144.78;34.27
55994;BME280;67425;52.126;20.638;2023-04-24T06:40:04;57003.41;;;-144.78;34.93
55994;BME280;67425;52.126;20.638;2023-04-24T06:42:30;57003.41;;;-144.78;34.73
55994;BME280;67425;52.126;20.638;2023-04-24T06:44:55;57015.88;;;-144.78;35.74
55994;BME280;67425;52.126;20.638;2023-04-24T06:47:21;57020.03;;;-144.78;35.50
55994;BME280;67425;52.126;20.638;2023-04-24T06:49:46;57015.88;;;-144.78;35.87
55994;BME280;67425;52.126;20.638;2023-04-24T06:52:11;57022.09;;;-144.78;36.26
55994;BME280;67425;52.126;20.638;2023-04-24T06:54:37;57047.03;;;-144.78;36.57
55994;BME280;67425;52.126;20.638;2023-04-24T06:57:02;57028.34;;;-144.78;36.33
55994;BME280;67425;52.126;20.638;2023-04-24T06:59:28;57028.34;;;-144.78;36.28
55994;BME280;67425;52.126;20.638;2023-04-24T07:01:54;57003.41;;;-144.78;35.83
55994;BME280;67425;52.126;20.638;2023-04-24T07:04:20;56976.41;;;-144.78;35.13
55994;BME280;67425;52.126;20.638;2023-04-24T07:06:45;56984.72;;;-144.78;34.65
55994;BME280;67425;52.126;20.638;2023-04-24T07:09:11;56995.09;;;-144.78;34.25
55994;BME280;67425;52.126;20.638;2023-04-24T07:11:38;57005.50;;;-144.78;34.45
55994;BME280;67425;52.126;20.638;2023-04-24T07:14:05;56993.03;;;-144.78;34.08
55994;BME280;67425;52.126;20.638;2023-04-24T07:16:31;57011.72;;;-144.78;34.40
55994;BME280;67425;52.126;20.638;2023-04-24T07:18:56;56978.50;;;-144.78;34.02
55994;BME280;67425;52.126;20.638;2023-04-24T07:21:22;57003.41;;;-144.78;33.88
55994;BME280;67425;52.126;20.638;2023-04-24T07:23:47;56986.81;;;-144.78;33.93
55994;BME280;67425;52.126;20.638;2023-04-24T07:26:12;57015.88;;;-144.78;32.81
55994;BME280;67425;52.126;20.638;2023-04-24T07:28:40;57001.34;;;-144.78;33.38
55994;BME280;67425;52.126;20.638;2023-04-24T07:31:07;56980.56;;;-144.78;31.59
55994;BME280;67425;52.126;20.638;2023-04-24T07:33:33;56976.41;;;-144.78;30.63
55994;BME280;67425;52.126;20.638;2023-04-24T07:35:58;56961.88;;;-144.78;30.59
55994;BME280;67425;52.126;20.638;2023-04-24T07:38:24;56966.03;;;-144.78;30.27
55994;BME280;67425;52.126;20.638;2023-04-24T07:40:51;56982.66;;;-144.78;30.62
55994;BME280;67425;52.126;20.638;2023-04-24T07:43:17;57009.66;;;-144.78;30.26
55994;BME280;67425;52.126;20.638;2023-04-24T07:45:42;56978.50;;;-144.78;29.67
55994;BME280;67425;52.126;20.638;2023-04-24T07:48:08;56990.97;;;-144.78;29.69
55994;BME280;67425;52.126;20.638;2023-04-24T07:50:34;56978.50;;;-144.78;29.59
55994;BME280;67425;52.126;20.638;2023-04-24T07:53:01;56957.72;;;-144.78;29.22
55994;BME280;67425;52.126;20.638;2023-04-24T07:55:26;56966.03;;;-144.78;29.36
55994;BME280;67425;52.126;20.638;2023-04-24T07:57:51;56957.72;;;-144.78;29.62
55994;BME280;67425;52.126;20.638;2023-04-24T08:00:17;56957.72;;;-144.78;29.04
55994;BME280;67425;52.126;20.638;2023-04-24T08:02:42;56930.72;;;-144.78;29.29
55994;BME280;67425;52.126;20.638;2023-04-24T08:05:08;56926.59;;;-144.78;28.41
55994;BME280;67425;52.126;20.638;2023-04-24T08:07:33;56936.97;;;-144.78;28.29
55994;BME280;67425;52.126;20.638;2023-04-24T08:10:00;56928.66;;;-144.78;28.56
55994;BME280;67425;52.126;20.638;2023-04-24T08:12:28;56949.44;;;-144.78;29.04
55994;BME280;67425;52.126;20.638;2023-04-24T08:14:53;56941.13;;;-144.78;28.50
55994;BME280;67425;52.126;20.638;2023-04-24T08:17:18;56972.25;;;-144.78;29.17
55994;BME280;67425;52.126;20.638;2023-04-24T08:19:44;56936.97;;;-144.78;29.09
55994;BME280;67425;52.126;20.638;2023-04-24T08:22:14;56974.34;;;-144.78;29.21
55994;BME280;67425;52.126;20.638;2023-04-24T08:24:40;56966.03;;;-144.78;29.23
55994;BME280;67425;52.126;20.638;2023-04-24T08:27:05;56947.34;;;-144.78;28.79
55994;BME280;67425;52.126;20.638;2023-04-24T08:29:30;56939.03;;;-144.78;29.22
55994;BME280;67425;52.126;20.638;2023-04-24T08:31:56;56953.56;;;-144.78;29.77
55994;BME280;67425;52.126;20.638;2023-04-24T08:34:21;56953.56;;;-144.78;29.58
55994;BME280;67425;52.126;20.638;2023-04-24T08:36:47;56961.88;;;-144.78;28.96
55994;BME280;67425;52.126;20.638;2023-04-24T08:39:12;56970.19;;;-144.78;30.35
55994;BME280;67425;52.126;20.638;2023-04-24T08:41:39;56947.34;;;-144.78;28.89
55994;BME280;67425;52.126;20.638;2023-04-24T08:44:08;56959.81;;;-144.78;29.17
55994;BME280;67425;52.126;20.638;2023-04-24T08:46:34;56974.34;;;-144.78;29.00
55994;BME280;67425;52.126;20.638;2023-04-24T08:49:01;56999.25;;;-144.78;29.41
55994;BME280;67425;52.126;20.638;2023-04-24T08:51:27;56978.50;;;-144.78;29.49
55994;BME280;67425;52.126;20.638;2023-04-24T08:53:54;56970.19;;;-144.78;29.16
55994;BME280;67425;52.126;20.638;2023-04-24T08:56:21;56986.81;;;-144.78;29.27
55994;BME280;67425;52.126;20.638;2023-04-24T08:58:49;56957.72;;;-144.78;28.98
55994;BME280;67425;52.126;20.638;2023-04-24T09:01:15;56957.72;;;-144.78;28.99
55994;BME280;67425;52.126;20.638;2023-04-24T09:03:40;56947.34;;;-144.78;28.55
55994;BME280;67425;52.126;20.638;2023-04-24T09:06:06;56918.28;;;-144.78;28.26
55994;BME280;67425;52.126;20.638;2023-04-24T09:08:33;56970.19;;;-144.78;28.97
55994;BME280;67425;52.126;20.638;2023-04-24T09:10:58;56968.13;;;-144.78;29.50
55994;BME280;67425;52.126;20.638;2023-04-24T09:13:27;56953.56;;;-144.78;29.69
55994;BME280;67425;52.126;20.638;2023-04-24T09:15:52;56959.81;;;-144.78;30.50
55994;BME280;67425;52.126;20.638;2023-04-24T09:18:19;56916.19;;;-144.78;31.71
55994;BME280;67425;52.126;20.638;2023-04-24T09:20:58;56928.66;;;-144.78;31.16
55994;BME280;67425;52.126;20.638;2023-04-24T09:23:27;56920.34;;;-144.78;30.89
55994;BME280;67425;52.126;20.638;2023-04-24T09:25:54;56953.56;;;-144.78;31.56
55994;BME280;67425;52.126;20.638;2023-04-24T09:28:25;56939.03;;;-144.78;31.67
55994;BME280;67425;52.126;20.638;2023-04-24T09:33:29;56916.19;;;-144.78;31.18
55994;BME280;67425;52.126;20.638;2023-04-24T09:35:55;56939.03;;;-144.78;31.20
55994;BME280;67425;52.126;20.638;2023-04-24T09:38:39;56922.44;;;-144.78;31.46
55994;BME280;67425;52.126;20.638;2023-04-24T09:41:06;56905.81;;;-144.78;29.38
55994;BME280;67425;52.126;20.638;2023-04-24T09:43:33;56903.75;;;-144.78;29.39
55994;BME280;67425;52.126;20.638;2023-04-24T09:46:05;56905.81;;;-144.78;30.59
55994;BME280;67425;52.126;20.638;2023-04-24T09:48:35;56922.44;;;-144.78;29.38
55994;BME280;67425;52.126;20.638;2023-04-24T09:51:03;56957.72;;;-144.78;30.22
55994;BME280;67425;52.126;20.638;2023-04-24T09:53:29;56974.34;;;-144.78;30.47
55994;BME280;67425;52.126;20.638;2023-04-24T09:55:55;56966.03;;;-144.78;29.84
55994;BME280;67425;52.126;20.638;2023-04-24T09:58:28;56966.03;;;-144.78;30.83
55994;BME280;67425;52.126;20.638;2023-04-24T10:00:55;56972.25;;;-144.78;30.36
55994;BME280;67425;52.126;20.638;2023-04-24T10:03:24;56955.66;;;-144.78;30.30
55994;BME280;67425;52.126;20.638;2023-04-24T10:05:51;56953.56;;;-144.78;29.82
55994;BME280;67425;52.126;20.638;2023-04-24T10:08:17;56978.50;;;-144.78;32.15
55994;BME280;67425;52.126;20.638;2023-04-24T10:10:45;56970.19;;;-144.78;30.76
55994;BME280;67425;52.126;20.638;2023-04-24T10:13:11;56976.41;;;-144.78;31.16
55994;BME280;67425;52.126;20.638;2023-04-24T10:15:38;56995.09;;;-144.78;31.53
55994;BME280;67425;52.126;20.638;2023-04-24T10:18:07;56953.56;;;-144.78;31.82
55994;BME280;67425;52.126;20.638;2023-04-24T10:20:34;56976.41;;;-144.78;31.24
55994;BME280;67425;52.126;20.638;2023-04-24T10:23:00;56993.03;;;-144.78;32.13
55994;BME280;67425;52.126;20.638;2023-04-24T10:25:28;56986.81;;;-144.78;31.35
55994;BME280;67425;52.126;20.638;2023-04-24T10:27:54;56986.81;;;-144.78;32.32
55994;BME280;67425;52.126;20.638;2023-04-24T10:30:25;56990.97;;;-144.78;31.77
55994;BME280;67425;52.126;20.638;2023-04-24T10:32:51;56972.25;;;-144.78;31.61
55994;BME280;67425;52.126;20.638;2023-04-24T10:35:17;56995.09;;;-144.78;32.29
55994;BME280;67425;52.126;20.638;2023-04-24T10:37:48;56986.81;;;-144.78;31.74
55994;BME280;67425;52.126;20.638;2023-04-24T10:40:26;57009.66;;;-144.78;32.59
55994;BME280;67425;52.126;20.638;2023-04-24T10:42:52;56997.19;;;-144.78;32.70
55994;BME280;67425;52.126;20.638;2023-04-24T10:45:22;57007.56;;;-144.78;32.71
55994;BME280;67425;52.126;20.638;2023-04-24T10:48:07;56990.97;;;-144.78;32.21
55994;BME280;67425;52.126;20.638;2023-04-24T10:50:47;56988.88;;;-144.78;32.24
55994;BME280;67425;52.126;20.638;2023-04-24T10:53:20;56974.34;;;-144.78;31.75
55994;BME280;67425;52.126;20.638;2023-04-24T10:55:50;56993.03;;;-144.78;32.29
55994;BME280;67425;52.126;20.638;2023-04-24T10:58:23;56966.03;;;-144.78;31.06
55994;BME280;67425;52.126;20.638;2023-04-24T11:00:59;56961.88;;;-144.78;30.22
55994;BME280;67425;52.126;20.638;2023-04-24T11:03:29;56982.66;;;-144.78;31.86
55994;BME280;67425;52.126;20.638;2023-04-24T11:06:00;56966.03;;;-144.78;31.47
55994;BME280;67425;52.126;20.638;2023-04-24T11:11:00;56963.97;;;-144.78;30.82
55994;BME280;67425;52.126;20.638;2023-04-24T11:13:27;56949.44;;;-144.78;31.00
55994;BME280;67425;52.126;20.638;2023-04-24T11:21:31;56978.50;;;-144.78;30.77
55994;BME280;67425;52.126;20.638;2023-04-24T11:23:57;56949.44;;;-144.78;28.79
55994;BME280;67425;52.126;20.638;2023-04-24T11:26:22;56999.25;;;-144.78;29.48
55994;BME280;67425;52.126;20.638;2023-04-24T11:29:06;56955.66;;;-144.78;29.53
55994;BME280;67425;52.126;20.638;2023-04-24T11:31:39;56951.50;;;-144.78;30.83
55994;BME280;67425;52.126;20.638;2023-04-24T11:34:11;56966.03;;;-144.78;29.09
55994;BME280;67425;52.126;20.638;2023-04-24T11:36:37;56959.81;;;-144.78;29.88
55994;BME280;67425;52.126;20.638;2023-04-24T11:39:03;56934.88;;;-144.78;27.95
55994;BME280;67425;52.126;20.638;2023-04-24T11:41:28;56939.03;;;-144.78;28.73
55994;BME280;67425;52.126;20.638;2023-04-24T11:43:55;56945.28;;;-144.78;29.55
55994;BME280;67425;52.126;20.638;2023-04-24T11:46:21;56949.44;;;-144.78;29.10
55994;BME280;67425;52.126;20.638;2023-04-24T11:48:47;56957.72;;;-144.78;29.78
55994;BME280;67425;52.126;20.638;2023-04-24T11:51:13;56955.66;;;-144.78;29.89
55994;BME280;67425;52.126;20.638;2023-04-24T11:53:38;56959.81;;;-144.78;29.49
55994;BME280;67425;52.126;20.638;2023-04-24T11:56:04;56941.13;;;-144.78;28.85
55994;BME280;67425;52.126;20.638;2023-04-24T11:58:35;56953.56;;;-144.78;29.38
55994;BME280;67425;52.126;20.638;2023-04-24T12:01:00;56966.03;;;-144.78;29.53
55994;BME280;67425;52.126;20.638;2023-04-24T12:03:26;56947.34;;;-144.78;28.84
55994;BME280;67425;52.126;20.638;2023-04-24T12:05:52;56961.88;;;-144.78;28.39
55994;BME280;67425;52.126;20.638;2023-04-24T12:08:28;56972.25;;;-144.78;28.65
55994;BME280;67425;52.126;20.638;2023-04-24T12:10:56;56976.41;;;-144.78;28.67
55994;BME280;67425;52.126;20.638;2023-04-24T12:13:23;56984.72;;;-144.78;29.08
55994;BME280;67425;52.126;20.638;2023-04-24T12:15:50;56978.50;;;-144.78;28.58
55994;BME280;67425;52.126;20.638;2023-04-24T12:18:15;56995.09;;;-144.78;29.24
55994;BME280;67425;52.126;20.638;2023-04-24T12:20:42;56966.03;;;-144.78;29.40
55994;BME280;67425;52.126;20.638;2023-04-24T12:23:07;56953.56;;;-144.78;29.54
55994;BME280;67425;52.126;20.638;2023-04-24T12:25:33;56972.25;;;-144.78;29.79
55994;BME280;67425;52.126;20.638;2023-04-24T12:30:29;56949.44;;;-144.78;30.04
55994;BME280;67425;52.126;20.638;2023-04-24T12:32:57;56955.66;;;-144.78;29.82
55994;BME280;67425;52.126;20.638;2023-04-24T12:35:24;56941.13;;;-144.78;30.31
55994;BME280;67425;52.126;20.638;2023-04-24T12:37:50;56941.13;;;-144.78;28.98
55994;BME280;67425;52.126;20.638;2023-04-24T12:40:17;56957.72;;;-144.78;29.21